Big Bear Station Historical Data
Daily Summary for February 3, 2019 Units:  Metric    English   Both
Next Day »
Daily Weekly Monthly Yearly Custom
  High: Low: Average:
Temperature: 4 °C -4.2 °C -0.4 °C
Dew Point: 2.1 °C -5.5 °C -1.3 °C
Humidity: 98% 87% 94%
Wind Speed: 6km/h 0km/h 0.3km/h
Wind Gust: -1607.7km/h - -
Wind- - WSW
Pressure: 788.9 hPa 786.2 hPa -
Precipitation: 0.25 mm    
Historical Graphs
 
 
Tabular Data for February 3, 2019
Time Temperature Dew Point Pressure Wind Wind Speed Wind Gust Humidity Rainfall Rate (Hourly)
00:04 -1.8 °C -2.2 °C 786.6 hPa Calm   -1607.7 km/h 97% 0 mm
00:19 -1.8 °C -2.2 °C 786.6 hPa Calm   -1607.7 km/h 97% 0 mm
00:34 -1.7 °C -2.1 °C 786.6 hPa Calm   -1607.7 km/h 97% 0 mm
00:49 -1.7 °C -2.1 °C 786.2 hPa Calm   -1607.7 km/h 97% 0 mm
01:05 -1.7 °C -2.1 °C 786.2 hPa Calm   -1607.7 km/h 97% 0 mm
01:20 -1.8 °C -2.2 °C 786.6 hPa Calm   -1607.7 km/h 97% 0 mm
01:35 -1.9 °C -2.3 °C 786.2 hPa Calm   -1607.7 km/h 97% 0 mm
01:51 -2 °C -2.4 °C 786.6 hPa Calm   -1607.7 km/h 97% 0 mm
02:06 -2 °C -2.4 °C 786.6 hPa Calm   -1607.7 km/h 97% 0 mm
02:21 -2 °C -2.4 °C 786.6 hPa Calm   -1607.7 km/h 97% 0 mm
02:37 -2 °C -2.4 °C 786.6 hPa Calm   -1607.7 km/h 97% 0 mm
02:52 -2.2 °C -2.6 °C 786.9 hPa Calm   -1607.7 km/h 97% 0 mm
03:07 -2.5 °C -3.1 °C 786.9 hPa Calm   -1607.7 km/h 96% 0 mm
03:22 -3.1 °C -3.9 °C 786.9 hPa Calm   -1607.7 km/h 94% 0 mm
03:37 -3.4 °C -4.3 °C 786.6 hPa Calm   -1607.7 km/h 93% 0 mm
03:53 -3.7 °C -5 °C 786.6 hPa Calm   -1607.7 km/h 91% 0 mm
04:08 -3.9 °C -5.2 °C 786.6 hPa Calm   -1607.7 km/h 91% 0 mm
04:23 -4 °C -5.3 °C 786.2 hPa Calm   -1607.7 km/h 91% 0 mm
04:39 -4.1 °C -5.4 °C 786.6 hPa Calm   -1607.7 km/h 91% 0 mm
04:54 -4.2 °C -5.4 °C 786.6 hPa Calm   -1607.7 km/h 91% 0 mm
05:09 -4.2 °C -5.4 °C 786.6 hPa Calm   -1607.7 km/h 91% 0 mm
05:24 -4.1 °C -5.5 °C 786.6 hPa Calm   -1607.7 km/h 90% 0 mm
05:40 -4.2 °C -5.3 °C 786.9 hPa Calm   -1607.7 km/h 92% 0 mm
05:55 -4.1 °C -5.1 °C 786.9 hPa Calm   -1607.7 km/h 93% 0 mm
06:10 -3.9 °C -4.7 °C 786.9 hPa Calm   -1607.7 km/h 94% 0 mm
06:25 -3.6 °C -4.3 °C 787.2 hPa Calm   -1607.7 km/h 95% 0 mm
06:41 -3.4 °C -3.9 °C 787.6 hPa Calm   -1607.7 km/h 96% 0 mm
06:56 -3.3 °C -3.8 °C 787.9 hPa Calm   -1607.7 km/h 96% 0 mm
07:11 -3.1 °C -3.7 °C 787.9 hPa Calm   -1607.7 km/h 96% 0 mm
07:26 -2.8 °C -3.3 °C 787.9 hPa Calm   -1607.7 km/h 96% 0 mm
07:41 -2.5 °C -3.1 °C 787.9 hPa Calm   -1607.7 km/h 96% 0 mm
07:57 -2 °C -2.7 °C 788.3 hPa Calm   -1607.7 km/h 95% 0 mm
08:12 -1.5 °C -2.2 °C 788.3 hPa Calm   -1607.7 km/h 95% 0 mm
08:27 -1.2 °C -2.1 °C 788.3 hPa Calm   -1607.7 km/h 94% 0 mm
08:42 -0.7 °C -1.7 °C 788.3 hPa Calm   -1607.7 km/h 93% 0 mm
08:57 -0.4 °C -1.4 °C 788.3 hPa Calm   -1607.7 km/h 93% 0 mm
09:13 0.5 °C -0.8 °C 788.3 hPa Calm   -1607.7 km/h 91% 0 mm
09:28 0.7 °C -0.6 °C 788.6 hPa Calm   -1607.7 km/h 91% 0 mm
09:43 0.9 °C -0.4 °C 788.6 hPa Calm   -1607.7 km/h 91% 0 mm
09:58 0.8 °C -0.4 °C 788.3 hPa Calm   -1607.7 km/h 92% 0 mm
10:13 1.1 °C -0.2 °C 788.6 hPa Calm   -1607.7 km/h 91% 0 mm
10:29 2.2 °C 0.4 °C 788.9 hPa Calm   -1607.7 km/h 88% 0 mm
10:44 2.3 °C 0.5 °C 788.9 hPa Calm   -1607.7 km/h 88% 0 mm
11:00 2.8 °C 0.8 °C 788.9 hPa Calm   -1607.7 km/h 87% 0 mm
11:15 2.7 °C 0.8 °C 788.6 hPa Calm   -1607.7 km/h 87% 0 mm
11:30 2.4 °C 0.8 °C 788.6 hPa Calm   -1607.7 km/h 89% 0 mm
11:45 2.3 °C 0.8 °C 788.6 hPa Calm   -1607.7 km/h 90% 0 mm
12:00 2.3 °C 0.7 °C 788.3 hPa Calm   -1607.7 km/h 89% 0 mm
12:16 3.9 °C 1.9 °C 788.3 hPa Calm   -1607.7 km/h 87% 0 mm
12:31 4 °C 2.1 °C 788.3 hPa Calm   -1607.7 km/h 87% 0 mm
12:46 3.8 °C 1.8 °C 787.9 hPa Calm   -1607.7 km/h 87% 0 mm
13:01 3.5 °C 1.6 °C 787.9 hPa Calm   -1607.7 km/h 87% 0 mm
13:17 3.2 °C 1.4 °C 787.6 hPa Calm   -1607.7 km/h 88% 0 mm
13:32 3.4 °C 1.4 °C 787.6 hPa NNW 6 km/h -1607.7 km/h 87% 0 mm
13:47 3.3 °C 1.6 °C 787.2 hPa Calm   -1607.7 km/h 89% 0 mm
14:02 3.2 °C 1.4 °C 787.2 hPa Calm   -1607.7 km/h 88% 0 mm
14:17 2.9 °C 1.3 °C 787.2 hPa SE 5.1 km/h -1607.7 km/h 89% 0 mm
14:33 2.8 °C 1.2 °C 787.2 hPa Calm   -1607.7 km/h 89% 0 mm
14:48 2.4 °C 0.9 °C 787.2 hPa Calm   -1607.7 km/h 90% 0 mm
15:03 2.2 °C 0.8 °C 787.2 hPa Calm   -1607.7 km/h 90% 0 mm
15:18 1.8 °C 0.4 °C 787.2 hPa South 1.8 km/h -1607.7 km/h 91% 0 mm
15:33 1.5 °C 0.3 °C 787.2 hPa Calm   -1607.7 km/h 92% 0 mm
15:49 1.5 °C 0.3 °C 787.2 hPa Calm   -1607.7 km/h 92% 0 mm
16:04 1.4 °C 0.2 °C 787.6 hPa Calm   -1607.7 km/h 92% 0 mm
16:19 1.1 °C 0.1 °C 787.2 hPa Calm   -1607.7 km/h 93% 0 mm
16:34 0.7 °C -0.3 °C 787.2 hPa Calm   -1607.7 km/h 93% 0 mm
16:50 0.4 °C -0.4 °C 787.2 hPa Calm   -1607.7 km/h 94% 0 mm
17:05 0.3 °C -0.4 °C 787.2 hPa Calm   -1607.7 km/h 95% 0 mm
17:20 0.1 °C -0.4 °C 787.2 hPa Calm   -1607.7 km/h 96% 0 mm
17:35 0.1 °C -0.4 °C 787.2 hPa Calm   -1607.7 km/h 96% 0 mm
17:50 0 °C -0.6 °C 787.2 hPa Calm   -1607.7 km/h 96% 0 mm
18:05 0 °C -0.6 °C 787.6 hPa NW 4.3 km/h -1607.7 km/h 96% 0 mm
18:21 -0.1 °C -0.6 °C 787.6 hPa Calm   -1607.7 km/h 97% 0 mm
18:36 -0.1 °C -0.6 °C 787.6 hPa NW 5.1 km/h -1607.7 km/h 97% 0 mm
18:51 -0.1 °C -0.4 °C 787.6 hPa Calm   -1607.7 km/h 98% 0 mm
19:07 -0.2 °C -0.5 °C 787.6 hPa Calm   -1607.7 km/h 98% 0 mm
19:22 -0.3 °C -0.6 °C 787.6 hPa Calm   -1607.7 km/h 98% 0 mm
19:37 -0.3 °C -0.6 °C 787.6 hPa Calm   -1607.7 km/h 98% 0 mm
19:52 -0.2 °C -0.5 °C 787.2 hPa Calm   -1607.7 km/h 98% 0 mm
20:07 -0.2 °C -0.5 °C 787.2 hPa Calm   -1607.7 km/h 98% 0 mm
20:23 -0.2 °C -0.5 °C 787.2 hPa Calm   -1607.7 km/h 98% 0 mm
20:38 -0.2 °C -0.5 °C 787.2 hPa Calm   -1607.7 km/h 98% 0 mm
20:53 -0.5 °C -0.8 °C 787.2 hPa Calm   -1607.7 km/h 98% 0 mm
21:08 -0.5 °C -0.8 °C 787.2 hPa Calm   -1607.7 km/h 98% 0 mm
21:23 -0.5 °C -0.8 °C 787.2 hPa Calm   -1607.7 km/h 98% 0 mm
21:39 -0.7 °C -1 °C 787.2 hPa NW 2.7 km/h -1607.7 km/h 98% 0 mm
21:54 -0.8 °C -1.2 °C 787.2 hPa NW 4.3 km/h -1607.7 km/h 97% 0 mm
22:09 -0.9 °C -1.3 °C 787.2 hPa Calm   -1607.7 km/h 97% 0 mm
22:24 -0.9 °C -1.3 °C 787.2 hPa Calm   -1607.7 km/h 97% 0 mm
22:40 -1.1 °C -1.5 °C 787.2 hPa Calm   -1607.7 km/h 97% 0 mm
22:55 -1.1 °C -1.5 °C 787.6 hPa Calm   -1607.7 km/h 97% 0 mm
23:10 -1.2 °C -1.6 °C 787.2 hPa Calm   -1607.7 km/h 97% 0 mm
23:25 -1.1 °C -1.5 °C 787.2 hPa Calm   -1607.7 km/h 97% 0 mm
23:40 -0.9 °C -1.3 °C 787.2 hPa Calm   -1607.7 km/h 97% 0 mm
23:56 -0.8 °C -1.2 °C 787.2 hPa East 4.3 km/h -1607.7 km/h 97% 0 mm
Big Bear CA Weather